sensor_id;sensor_type;location;lat;lon;timestamp;P1;durP1;ratioP1;P2;durP2;ratioP2
55210;SDS011;41082;52.822;6.666;2023-06-26T04:21:52;10.52;;;9.10;;
55210;SDS011;41082;52.822;6.666;2023-06-26T04:24:17;9.13;;;8.13;;
55210;SDS011;41082;52.822;6.666;2023-06-26T04:26:43;10.27;;;8.02;;
55210;SDS011;41082;52.822;6.666;2023-06-26T04:29:10;8.90;;;7.85;;
55210;SDS011;41082;52.822;6.666;2023-06-26T04:31:36;10.15;;;7.90;;
55210;SDS011;41082;52.822;6.666;2023-06-26T04:34:01;8.98;;;8.07;;
55210;SDS011;41082;52.822;6.666;2023-06-26T04:36:27;8.77;;;7.93;;
55210;SDS011;41082;52.822;6.666;2023-06-26T04:38:56;9.45;;;8.55;;
55210;SDS011;41082;52.822;6.666;2023-06-26T04:41:23;9.40;;;8.07;;
55210;SDS011;41082;52.822;6.666;2023-06-26T04:43:49;9.80;;;8.35;;
55210;SDS011;41082;52.822;6.666;2023-06-26T04:46:15;9.43;;;8.52;;
55210;SDS011;41082;52.822;6.666;2023-06-26T04:48:41;11.13;;;7.88;;
55210;SDS011;41082;52.822;6.666;2023-06-26T04:51:06;9.95;;;7.90;;
55210;SDS011;41082;52.822;6.666;2023-06-26T04:53:32;11.10;;;6.55;;
55210;SDS011;41082;52.822;6.666;2023-06-26T04:55:57;10.90;;;6.40;;
55210;SDS011;41082;52.822;6.666;2023-06-26T04:58:23;13.07;;;6.40;;
55210;SDS011;41082;52.822;6.666;2023-06-26T05:00:48;12.32;;;6.97;;
55210;SDS011;41082;52.822;6.666;2023-06-26T05:03:15;14.25;;;6.43;;
55210;SDS011;41082;52.822;6.666;2023-06-26T05:05:42;11.48;;;5.82;;
55210;SDS011;41082;52.822;6.666;2023-06-26T05:08:17;13.68;;;6.63;;
55210;SDS011;41082;52.822;6.666;2023-06-26T05:10:45;10.80;;;5.72;;
55210;SDS011;41082;52.822;6.666;2023-06-26T05:13:11;13.57;;;5.85;;
55210;SDS011;41082;52.822;6.666;2023-06-26T05:15:40;11.55;;;5.45;;
55210;SDS011;41082;52.822;6.666;2023-06-26T05:18:07;11.18;;;5.90;;
55210;SDS011;41082;52.822;6.666;2023-06-26T05:20:33;12.07;;;5.40;;
55210;SDS011;41082;52.822;6.666;2023-06-26T05:23:01;12.73;;;5.95;;
55210;SDS011;41082;52.822;6.666;2023-06-26T05:25:28;11.85;;;6.53;;
55210;SDS011;41082;52.822;6.666;2023-06-26T05:27:55;11.95;;;5.88;;
55210;SDS011;41082;52.822;6.666;2023-06-26T05:30:22;11.45;;;5.78;;
55210;SDS011;41082;52.822;6.666;2023-06-26T05:32:50;12.88;;;6.15;;
55210;SDS011;41082;52.822;6.666;2023-06-26T05:35:17;10.52;;;6.35;;
55210;SDS011;41082;52.822;6.666;2023-06-26T05:37:45;9.93;;;5.72;;
55210;SDS011;41082;52.822;6.666;2023-06-26T05:40:14;9.75;;;5.47;;
55210;SDS011;41082;52.822;6.666;2023-06-26T05:42:41;12.93;;;6.43;;
55210;SDS011;41082;52.822;6.666;2023-06-26T05:45:07;9.88;;;5.30;;
55210;SDS011;41082;52.822;6.666;2023-06-26T05:47:32;11.93;;;6.03;;
55210;SDS011;41082;52.822;6.666;2023-06-26T05:49:59;11.52;;;6.13;;
55210;SDS011;41082;52.822;6.666;2023-06-26T05:52:25;10.15;;;5.53;;
55210;SDS011;41082;52.822;6.666;2023-06-26T05:54:50;10.27;;;5.93;;
55210;SDS011;41082;52.822;6.666;2023-06-26T05:57:16;12.07;;;5.80;;
55210;SDS011;41082;52.822;6.666;2023-06-26T05:59:43;9.15;;;5.40;;
55210;SDS011;41082;52.822;6.666;2023-06-26T06:02:08;8.05;;;5.57;;
55210;SDS011;41082;52.822;6.666;2023-06-26T06:04:34;9.40;;;5.15;;
55210;SDS011;41082;52.822;6.666;2023-06-26T06:07:02;12.88;;;5.65;;
55210;SDS011;41082;52.822;6.666;2023-06-26T06:09:28;11.18;;;5.20;;
55210;SDS011;41082;52.822;6.666;2023-06-26T06:11:53;12.05;;;5.55;;
55210;SDS011;41082;52.822;6.666;2023-06-26T06:14:19;9.05;;;4.47;;
55210;SDS011;41082;52.822;6.666;2023-06-26T06:16:44;10.60;;;4.75;;
55210;SDS011;41082;52.822;6.666;2023-06-26T06:19:10;9.52;;;5.10;;
55210;SDS011;41082;52.822;6.666;2023-06-26T06:21:38;9.07;;;4.65;;
55210;SDS011;41082;52.822;6.666;2023-06-26T06:24:04;7.95;;;3.67;;
55210;SDS011;41082;52.822;6.666;2023-06-26T06:26:31;6.25;;;2.83;;
55210;SDS011;41082;52.822;6.666;2023-06-26T06:28:57;7.25;;;2.25;;
55210;SDS011;41082;52.822;6.666;2023-06-26T06:31:23;6.10;;;1.80;;
55210;SDS011;41082;52.822;6.666;2023-06-26T06:33:48;7.30;;;1.92;;
55210;SDS011;41082;52.822;6.666;2023-06-26T06:36:14;7.43;;;1.80;;
55210;SDS011;41082;52.822;6.666;2023-06-26T06:38:42;4.72;;;1.50;;
55210;SDS011;41082;52.822;6.666;2023-06-26T06:41:09;6.72;;;1.63;;
55210;SDS011;41082;52.822;6.666;2023-06-26T06:43:34;6.68;;;1.80;;
55210;SDS011;41082;52.822;6.666;2023-06-26T06:46:02;4.15;;;1.45;;
55210;SDS011;41082;52.822;6.666;2023-06-26T06:48:27;3.85;;;1.20;;
55210;SDS011;41082;52.822;6.666;2023-06-26T06:50:53;6.28;;;1.42;;
55210;SDS011;41082;52.822;6.666;2023-06-26T06:53:19;5.43;;;1.10;;
55210;SDS011;41082;52.822;6.666;2023-06-26T06:55:48;5.75;;;1.20;;
55210;SDS011;41082;52.822;6.666;2023-06-26T06:58:14;3.55;;;1.10;;
55210;SDS011;41082;52.822;6.666;2023-06-26T07:00:42;4.45;;;1.02;;
55210;SDS011;41082;52.822;6.666;2023-06-26T07:03:07;3.85;;;1.02;;
55210;SDS011;41082;52.822;6.666;2023-06-26T07:05:33;6.65;;;0.88;;
55210;SDS011;41082;52.822;6.666;2023-06-26T07:07:59;11.27;;;1.65;;
55210;SDS011;41082;52.822;6.666;2023-06-26T07:10:24;8.23;;;1.98;;
55210;SDS011;41082;52.822;6.666;2023-06-26T07:12:50;7.28;;;1.58;;
55210;SDS011;41082;52.822;6.666;2023-06-26T07:15:16;4.43;;;0.80;;
55210;SDS011;41082;52.822;6.666;2023-06-26T07:17:42;5.40;;;1.05;;
55210;SDS011;41082;52.822;6.666;2023-06-26T07:20:07;4.00;;;0.80;;
55210;SDS011;41082;52.822;6.666;2023-06-26T07:22:35;3.70;;;0.90;;
55210;SDS011;41082;52.822;6.666;2023-06-26T07:25:01;7.07;;;0.98;;
55210;SDS011;41082;52.822;6.666;2023-06-26T07:27:27;5.30;;;1.20;;
55210;SDS011;41082;52.822;6.666;2023-06-26T07:29:52;3.20;;;0.82;;
55210;SDS011;41082;52.822;6.666;2023-06-26T07:32:18;4.53;;;1.15;;
55210;SDS011;41082;52.822;6.666;2023-06-26T07:34:44;4.72;;;1.02;;
55210;SDS011;41082;52.822;6.666;2023-06-26T07:37:09;5.28;;;0.82;;
55210;SDS011;41082;52.822;6.666;2023-06-26T07:39:35;5.60;;;1.05;;
55210;SDS011;41082;52.822;6.666;2023-06-26T07:42:00;4.03;;;1.05;;
55210;SDS011;41082;52.822;6.666;2023-06-26T07:44:26;4.72;;;1.13;;
55210;SDS011;41082;52.822;6.666;2023-06-26T07:46:52;3.25;;;0.90;;
55210;SDS011;41082;52.822;6.666;2023-06-26T07:49:17;4.97;;;0.90;;
55210;SDS011;41082;52.822;6.666;2023-06-26T07:51:43;6.43;;;1.05;;
55210;SDS011;41082;52.822;6.666;2023-06-26T07:54:09;2.75;;;0.70;;
55210;SDS011;41082;52.822;6.666;2023-06-26T07:56:53;4.03;;;1.08;;
55210;SDS011;41082;52.822;6.666;2023-06-26T07:59:24;3.70;;;0.85;;
55210;SDS011;41082;52.822;6.666;2023-06-26T08:01:51;3.33;;;0.80;;
55210;SDS011;41082;52.822;6.666;2023-06-26T08:04:18;3.13;;;1.02;;
55210;SDS011;41082;52.822;6.666;2023-06-26T08:06:48;5.93;;;0.80;;
55210;SDS011;41082;52.822;6.666;2023-06-26T08:09:14;3.53;;;0.73;;
55210;SDS011;41082;52.822;6.666;2023-06-26T08:11:40;2.83;;;0.88;;
55210;SDS011;41082;52.822;6.666;2023-06-26T08:14:06;4.15;;;1.17;;
55210;SDS011;41082;52.822;6.666;2023-06-26T08:16:31;3.30;;;0.52;;
55210;SDS011;41082;52.822;6.666;2023-06-26T08:18:57;2.53;;;0.50;;
55210;SDS011;41082;52.822;6.666;2023-06-26T08:21:23;4.55;;;0.50;;
55210;SDS011;41082;52.822;6.666;2023-06-26T08:23:48;3.13;;;0.52;;
55210;SDS011;41082;52.822;6.666;2023-06-26T08:26:14;3.67;;;0.60;;
55210;SDS011;41082;52.822;6.666;2023-06-26T08:28:39;3.83;;;0.68;;
55210;SDS011;41082;52.822;6.666;2023-06-26T08:31:05;3.33;;;0.35;;
55210;SDS011;41082;52.822;6.666;2023-06-26T08:33:31;1.85;;;0.88;;
55210;SDS011;41082;52.822;6.666;2023-06-26T08:35:57;5.18;;;0.93;;
55210;SDS011;41082;52.822;6.666;2023-06-26T08:38:23;2.78;;;0.80;;
55210;SDS011;41082;52.822;6.666;2023-06-26T08:40:48;3.10;;;0.55;;
55210;SDS011;41082;52.822;6.666;2023-06-26T08:43:14;4.30;;;0.68;;
55210;SDS011;41082;52.822;6.666;2023-06-26T08:45:39;4.43;;;0.57;;
55210;SDS011;41082;52.822;6.666;2023-06-26T08:48:09;4.28;;;0.50;;
55210;SDS011;41082;52.822;6.666;2023-06-26T08:50:35;3.15;;;0.60;;
55210;SDS011;41082;52.822;6.666;2023-06-26T08:55:52;3.65;;;0.82;;
55210;SDS011;41082;52.822;6.666;2023-06-26T08:58:19;2.33;;;0.57;;
55210;SDS011;41082;52.822;6.666;2023-06-26T09:00:45;3.60;;;0.57;;
55210;SDS011;41082;52.822;6.666;2023-06-26T09:03:11;3.45;;;0.65;;
55210;SDS011;41082;52.822;6.666;2023-06-26T09:05:38;6.40;;;0.88;;
55210;SDS011;41082;52.822;6.666;2023-06-26T09:08:03;1.83;;;0.60;;
55210;SDS011;41082;52.822;6.666;2023-06-26T09:10:30;4.20;;;0.68;;
55210;SDS011;41082;52.822;6.666;2023-06-26T09:12:56;2.58;;;0.70;;
55210;SDS011;41082;52.822;6.666;2023-06-26T09:15:26;3.97;;;0.80;;
55210;SDS011;41082;52.822;6.666;2023-06-26T09:17:55;4.93;;;1.33;;
55210;SDS011;41082;52.822;6.666;2023-06-26T09:20:22;2.72;;;0.80;;
55210;SDS011;41082;52.822;6.666;2023-06-26T09:22:48;2.50;;;0.80;;
55210;SDS011;41082;52.822;6.666;2023-06-26T09:25:14;2.40;;;0.70;;
55210;SDS011;41082;52.822;6.666;2023-06-26T09:27:43;3.35;;;0.88;;
55210;SDS011;41082;52.822;6.666;2023-06-26T09:30:10;2.97;;;0.90;;
55210;SDS011;41082;52.822;6.666;2023-06-26T09:32:35;3.65;;;1.08;;
55210;SDS011;41082;52.822;6.666;2023-06-26T09:35:02;2.17;;;0.77;;
55210;SDS011;41082;52.822;6.666;2023-06-26T09:37:28;5.28;;;0.90;;
55210;SDS011;41082;52.822;6.666;2023-06-26T09:39:54;8.00;;;1.20;;
55210;SDS011;41082;52.822;6.666;2023-06-26T09:42:20;4.60;;;1.10;;
55210;SDS011;41082;52.822;6.666;2023-06-26T09:44:46;8.00;;;1.60;;
55210;SDS011;41082;52.822;6.666;2023-06-26T09:47:15;4.10;;;0.95;;
55210;SDS011;41082;52.822;6.666;2023-06-26T09:49:43;3.22;;;1.00;;
55210;SDS011;41082;52.822;6.666;2023-06-26T09:52:09;5.68;;;1.13;;
55210;SDS011;41082;52.822;6.666;2023-06-26T09:54:34;8.40;;;1.20;;
55210;SDS011;41082;52.822;6.666;2023-06-26T09:57:10;7.47;;;1.40;;
55210;SDS011;41082;52.822;6.666;2023-06-26T09:59:37;4.10;;;0.88;;
55210;SDS011;41082;52.822;6.666;2023-06-26T10:02:03;3.60;;;0.85;;
55210;SDS011;41082;52.822;6.666;2023-06-26T10:04:29;3.20;;;0.90;;
55210;SDS011;41082;52.822;6.666;2023-06-26T10:06:55;5.07;;;1.17;;
55210;SDS011;41082;52.822;6.666;2023-06-26T10:09:22;3.75;;;0.85;;
55210;SDS011;41082;52.822;6.666;2023-06-26T10:11:55;3.95;;;0.50;;
55210;SDS011;41082;52.822;6.666;2023-06-26T10:14:35;5.95;;;1.02;;
55210;SDS011;41082;52.822;6.666;2023-06-26T10:17:13;4.95;;;1.00;;
55210;SDS011;41082;52.822;6.666;2023-06-26T10:19:43;5.60;;;1.00;;
55210;SDS011;41082;52.822;6.666;2023-06-26T10:22:10;3.85;;;0.80;;
55210;SDS011;41082;52.822;6.666;2023-06-26T10:24:39;3.30;;;0.82;;
55210;SDS011;41082;52.822;6.666;2023-06-26T10:27:19;3.28;;;0.60;;
55210;SDS011;41082;52.822;6.666;2023-06-26T10:29:46;3.97;;;0.68;;
55210;SDS011;41082;52.822;6.666;2023-06-26T10:32:19;4.10;;;0.80;;
55210;SDS011;41082;52.822;6.666;2023-06-26T10:34:46;1.60;;;0.55;;
55210;SDS011;41082;52.822;6.666;2023-06-26T10:37:12;3.03;;;0.70;;
55210;SDS011;41082;52.822;6.666;2023-06-26T10:39:47;6.47;;;0.85;;
55210;SDS011;41082;52.822;6.666;2023-06-26T10:42:15;2.72;;;0.60;;
55210;SDS011;41082;52.822;6.666;2023-06-26T10:44:42;2.92;;;0.70;;
55210;SDS011;41082;52.822;6.666;2023-06-26T10:47:09;3.00;;;0.90;;
55210;SDS011;41082;52.822;6.666;2023-06-26T10:49:36;3.97;;;1.23;;
55210;SDS011;41082;52.822;6.666;2023-06-26T10:52:04;2.97;;;1.00;;
55210;SDS011;41082;52.822;6.666;2023-06-26T10:54:30;3.67;;;1.10;;
55210;SDS011;41082;52.822;6.666;2023-06-26T10:56:57;6.80;;;1.25;;
55210;SDS011;41082;52.822;6.666;2023-06-26T10:59:24;5.38;;;1.27;;
55210;SDS011;41082;52.822;6.666;2023-06-26T11:04:21;4.25;;;0.70;;
55210;SDS011;41082;52.822;6.666;2023-06-26T11:07:18;5.43;;;1.05;;
55210;SDS011;41082;52.822;6.666;2023-06-26T11:12:37;3.45;;;1.02;;
55210;SDS011;41082;52.822;6.666;2023-06-26T11:15:06;3.70;;;0.60;;
55210;SDS011;41082;52.822;6.666;2023-06-26T11:17:34;3.42;;;0.82;;
55210;SDS011;41082;52.822;6.666;2023-06-26T11:20:00;2.55;;;0.60;;
55210;SDS011;41082;52.822;6.666;2023-06-26T11:22:26;4.25;;;0.45;;
55210;SDS011;41082;52.822;6.666;2023-06-26T11:24:52;4.22;;;0.60;;
55210;SDS011;41082;52.822;6.666;2023-06-26T11:27:19;2.35;;;0.52;;
55210;SDS011;41082;52.822;6.666;2023-06-26T11:29:48;2.28;;;0.60;;
55210;SDS011;41082;52.822;6.666;2023-06-26T11:32:14;2.73;;;0.80;;
55210;SDS011;41082;52.822;6.666;2023-06-26T11:34:40;5.15;;;1.02;;
55210;SDS011;41082;52.822;6.666;2023-06-26T11:37:08;4.32;;;1.00;;
55210;SDS011;41082;52.822;6.666;2023-06-26T11:39:34;3.55;;;1.00;;
55210;SDS011;41082;52.822;6.666;2023-06-26T11:42:00;5.25;;;0.60;;
55210;SDS011;41082;52.822;6.666;2023-06-26T11:44:30;5.05;;;0.93;;
55210;SDS011;41082;52.822;6.666;2023-06-26T11:46:56;10.17;;;1.47;;
55210;SDS011;41082;52.822;6.666;2023-06-26T11:49:22;8.15;;;1.35;;
55210;SDS011;41082;52.822;6.666;2023-06-26T11:51:50;7.95;;;0.80;;
55210;SDS011;41082;52.822;6.666;2023-06-26T11:54:22;3.90;;;0.93;;
55210;SDS011;41082;52.822;6.666;2023-06-26T11:56:56;3.38;;;0.60;;
55210;SDS011;41082;52.822;6.666;2023-06-26T11:59:23;4.47;;;0.65;;
55210;SDS011;41082;52.822;6.666;2023-06-26T12:01:50;3.85;;;0.60;;
55210;SDS011;41082;52.822;6.666;2023-06-26T12:04:19;6.43;;;1.02;;
55210;SDS011;41082;52.822;6.666;2023-06-26T12:06:46;8.07;;;1.10;;
55210;SDS011;41082;52.822;6.666;2023-06-26T12:09:13;2.95;;;0.68;;
55210;SDS011;41082;52.822;6.666;2023-06-26T12:11:41;1.90;;;0.57;;
55210;SDS011;41082;52.822;6.666;2023-06-26T12:14:09;2.03;;;0.32;;
55210;SDS011;41082;52.822;6.666;2023-06-26T12:16:36;3.08;;;0.40;;
55210;SDS011;41082;52.822;6.666;2023-06-26T12:19:04;2.70;;;0.57;;
55210;SDS011;41082;52.822;6.666;2023-06-26T12:24:03;4.28;;;0.50;;
55210;SDS011;41082;52.822;6.666;2023-06-26T12:26:29;4.75;;;0.47;;
55210;SDS011;41082;52.822;6.666;2023-06-26T12:29:04;5.93;;;0.45;;
55210;SDS011;41082;52.822;6.666;2023-06-26T12:31:33;4.25;;;0.40;;
55210;SDS011;41082;52.822;6.666;2023-06-26T12:34:00;3.58;;;0.30;;
55210;SDS011;41082;52.822;6.666;2023-06-26T12:36:27;3.97;;;1.00;;
55210;SDS011;41082;52.822;6.666;2023-06-26T12:38:53;4.22;;;0.80;;
55210;SDS011;41082;52.822;6.666;2023-06-26T12:41:19;2.00;;;0.50;;
55210;SDS011;41082;52.822;6.666;2023-06-26T12:43:48;4.50;;;0.73;;
55210;SDS011;41082;52.822;6.666;2023-06-26T12:46:15;5.10;;;0.63;;
55210;SDS011;41082;52.822;6.666;2023-06-26T12:48:44;8.05;;;0.90;;
55210;SDS011;41082;52.822;6.666;2023-06-26T12:51:12;5.90;;;0.63;;
55210;SDS011;41082;52.822;6.666;2023-06-26T12:53:42;4.30;;;0.90;;
55210;SDS011;41082;52.822;6.666;2023-06-26T12:56:08;4.88;;;0.77;;
55210;SDS011;41082;52.822;6.666;2023-06-26T12:58:35;5.85;;;0.82;;
55210;SDS011;41082;52.822;6.666;2023-06-26T13:01:05;2.40;;;0.50;;
55210;SDS011;41082;52.822;6.666;2023-06-26T13:03:39;4.55;;;0.80;;
55210;SDS011;41082;52.822;6.666;2023-06-26T13:06:08;6.13;;;0.38;;
55210;SDS011;41082;52.822;6.666;2023-06-26T13:08:34;5.88;;;0.73;;
55210;SDS011;41082;52.822;6.666;2023-06-26T13:10:59;5.45;;;0.80;;
55210;SDS011;41082;52.822;6.666;2023-06-26T13:13:27;3.03;;;0.30;;
55210;SDS011;41082;52.822;6.666;2023-06-26T13:15:53;7.00;;;0.63;;
55210;SDS011;41082;52.822;6.666;2023-06-26T13:18:18;3.33;;;0.50;;
55210;SDS011;41082;52.822;6.666;2023-06-26T13:20:44;5.43;;;0.40;;
55210;SDS011;41082;52.822;6.666;2023-06-26T13:23:09;3.33;;;0.43;;
55210;SDS011;41082;52.822;6.666;2023-06-26T13:25:35;3.28;;;0.80;;
55210;SDS011;41082;52.822;6.666;2023-06-26T13:28:00;2.30;;;0.50;;
55210;SDS011;41082;52.822;6.666;2023-06-26T13:30:26;5.28;;;0.50;;
55210;SDS011;41082;52.822;6.666;2023-06-26T13:32:51;4.53;;;0.40;;
55210;SDS011;41082;52.822;6.666;2023-06-26T13:35:17;3.67;;;0.32;;
55210;SDS011;41082;52.822;6.666;2023-06-26T13:37:43;4.75;;;0.60;;
55210;SDS011;41082;52.822;6.666;2023-06-26T13:40:08;4.60;;;0.25;;
55210;SDS011;41082;52.822;6.666;2023-06-26T13:42:34;2.78;;;0.20;;
55210;SDS011;41082;52.822;6.666;2023-06-26T13:45:01;1.95;;;0.30;;
55210;SDS011;41082;52.822;6.666;2023-06-26T13:47:28;4.28;;;0.40;;
55210;SDS011;41082;52.822;6.666;2023-06-26T13:49:53;5.90;;;0.50;;
55210;SDS011;41082;52.822;6.666;2023-06-26T13:52:19;2.20;;;0.40;;
55210;SDS011;41082;52.822;6.666;2023-06-26T13:54:45;4.65;;;0.60;;
55210;SDS011;41082;52.822;6.666;2023-06-26T13:57:10;5.85;;;0.30;;
55210;SDS011;41082;52.822;6.666;2023-06-26T13:59:37;7.50;;;0.70;;
55210;SDS011;41082;52.822;6.666;2023-06-26T14:02:09;4.80;;;0.40;;
55210;SDS011;41082;52.822;6.666;2023-06-26T14:04:34;5.85;;;0.43;;
55210;SDS011;41082;52.822;6.666;2023-06-26T14:07:00;2.90;;;0.50;;
55210;SDS011;41082;52.822;6.666;2023-06-26T14:09:26;2.38;;;0.25;;
55210;SDS011;41082;52.822;6.666;2023-06-26T14:11:51;1.85;;;0.30;;
55210;SDS011;41082;52.822;6.666;2023-06-26T14:14:17;2.58;;;0.40;;
55210;SDS011;41082;52.822;6.666;2023-06-26T14:16:42;2.55;;;0.50;;
55210;SDS011;41082;52.822;6.666;2023-06-26T14:19:08;2.53;;;0.60;;
55210;SDS011;41082;52.822;6.666;2023-06-26T14:21:39;4.28;;;0.50;;
55210;SDS011;41082;52.822;6.666;2023-06-26T14:24:05;2.70;;;0.43;;
55210;SDS011;41082;52.822;6.666;2023-06-26T14:26:31;2.78;;;0.30;;
55210;SDS011;41082;52.822;6.666;2023-06-26T14:28:57;4.13;;;0.50;;
55210;SDS011;41082;52.822;6.666;2023-06-26T14:31:23;3.97;;;0.40;;
55210;SDS011;41082;52.822;6.666;2023-06-26T14:33:48;3.75;;;0.55;;
55210;SDS011;41082;52.822;6.666;2023-06-26T14:36:14;4.63;;;0.52;;
55210;SDS011;41082;52.822;6.666;2023-06-26T14:38:40;3.63;;;0.52;;
55210;SDS011;41082;52.822;6.666;2023-06-26T14:41:05;2.35;;;0.30;;
55210;SDS011;41082;52.822;6.666;2023-06-26T14:43:31;2.10;;;0.40;;
55210;SDS011;41082;52.822;6.666;2023-06-26T14:45:57;2.80;;;0.30;;
55210;SDS011;41082;52.822;6.666;2023-06-26T14:48:22;4.32;;;0.60;;
55210;SDS011;41082;52.822;6.666;2023-06-26T14:50:48;3.70;;;0.40;;
55210;SDS011;41082;52.822;6.666;2023-06-26T14:53:14;6.18;;;0.60;;
55210;SDS011;41082;52.822;6.666;2023-06-26T14:55:39;2.63;;;0.30;;
55210;SDS011;41082;52.822;6.666;2023-06-26T14:58:05;4.60;;;1.38;;
55210;SDS011;41082;52.822;6.666;2023-06-26T15:00:30;3.53;;;0.57;;
55210;SDS011;41082;52.822;6.666;2023-06-26T15:02:56;4.22;;;0.52;;
55210;SDS011;41082;52.822;6.666;2023-06-26T15:05:23;2.38;;;0.20;;
55210;SDS011;41082;52.822;6.666;2023-06-26T15:07:49;3.75;;;0.57;;
55210;SDS011;41082;52.822;6.666;2023-06-26T15:10:14;4.90;;;0.55;;
55210;SDS011;41082;52.822;6.666;2023-06-26T15:12:41;1.85;;;0.30;;
55210;SDS011;41082;52.822;6.666;2023-06-26T15:15:07;4.25;;;0.50;;
55210;SDS011;41082;52.822;6.666;2023-06-26T15:17:33;2.90;;;0.40;;
55210;SDS011;41082;52.822;6.666;2023-06-26T15:19:59;2.53;;;0.28;;
55210;SDS011;41082;52.822;6.666;2023-06-26T15:22:27;5.45;;;0.30;;
55210;SDS011;41082;52.822;6.666;2023-06-26T15:24:53;2.35;;;0.45;;
55210;SDS011;41082;52.822;6.666;2023-06-26T15:27:19;1.20;;;0.28;;
55210;SDS011;41082;52.822;6.666;2023-06-26T15:29:45;2.42;;;0.32;;
55210;SDS011;41082;52.822;6.666;2023-06-26T15:32:10;1.88;;;0.60;;
55210;SDS011;41082;52.822;6.666;2023-06-26T15:34:36;5.18;;;0.43;;
55210;SDS011;41082;52.822;6.666;2023-06-26T15:37:02;1.80;;;0.40;;
55210;SDS011;41082;52.822;6.666;2023-06-26T15:39:28;6.13;;;0.20;;
55210;SDS011;41082;52.822;6.666;2023-06-26T15:41:53;3.80;;;0.57;;
55210;SDS011;41082;52.822;6.666;2023-06-26T15:44:19;3.15;;;0.50;;
55210;SDS011;41082;52.822;6.666;2023-06-26T15:46:44;2.88;;;0.40;;
55210;SDS011;41082;52.822;6.666;2023-06-26T15:49:10;2.55;;;0.40;;
55210;SDS011;41082;52.822;6.666;2023-06-26T15:51:36;4.85;;;0.40;;
55210;SDS011;41082;52.822;6.666;2023-06-26T15:54:05;5.18;;;0.50;;
55210;SDS011;41082;52.822;6.666;2023-06-26T15:56:31;3.78;;;0.45;;
55210;SDS011;41082;52.822;6.666;2023-06-26T15:58:57;4.45;;;0.40;;
55210;SDS011;41082;52.822;6.666;2023-06-26T16:01:23;5.38;;;1.15;;
55210;SDS011;41082;52.822;6.666;2023-06-26T16:03:50;4.20;;;0.50;;
55210;SDS011;41082;52.822;6.666;2023-06-26T16:06:16;4.45;;;0.45;;
55210;SDS011;41082;52.822;6.666;2023-06-26T16:08:41;4.30;;;0.50;;
55210;SDS011;41082;52.822;6.666;2023-06-26T16:11:07;2.45;;;0.40;;
55210;SDS011;41082;52.822;6.666;2023-06-26T16:13:33;4.13;;;0.38;;
55210;SDS011;41082;52.822;6.666;2023-06-26T16:15:59;3.28;;;0.43;;
55210;SDS011;41082;52.822;6.666;2023-06-26T16:18:25;2.50;;;0.40;;
55210;SDS011;41082;52.822;6.666;2023-06-26T16:20:51;8.35;;;0.57;;
55210;SDS011;41082;52.822;6.666;2023-06-26T16:23:17;3.72;;;0.70;;
55210;SDS011;41082;52.822;6.666;2023-06-26T16:25:43;2.95;;;0.40;;
55210;SDS011;41082;52.822;6.666;2023-06-26T16:28:09;3.47;;;0.60;;
55210;SDS011;41082;52.822;6.666;2023-06-26T16:30:34;4.78;;;1.40;;
55210;SDS011;41082;52.822;6.666;2023-06-26T16:33:00;2.60;;;0.40;;
55210;SDS011;41082;52.822;6.666;2023-06-26T16:35:26;3.58;;;0.30;;
55210;SDS011;41082;52.822;6.666;2023-06-26T16:37:52;3.75;;;0.57;;
55210;SDS011;41082;52.822;6.666;2023-06-26T16:40:17;4.72;;;0.47;;
55210;SDS011;41082;52.822;6.666;2023-06-26T16:42:43;6.22;;;0.77;;
55210;SDS011;41082;52.822;6.666;2023-06-26T16:45:09;5.55;;;0.68;;
55210;SDS011;41082;52.822;6.666;2023-06-26T16:47:34;4.45;;;0.40;;
55210;SDS011;41082;52.822;6.666;2023-06-26T16:50:01;5.22;;;0.45;;
55210;SDS011;41082;52.822;6.666;2023-06-26T16:52:26;2.10;;;0.50;;
55210;SDS011;41082;52.822;6.666;2023-06-26T16:54:52;2.17;;;0.60;;
55210;SDS011;41082;52.822;6.666;2023-06-26T16:57:18;2.22;;;0.38;;
55210;SDS011;41082;52.822;6.666;2023-06-26T16:59:43;2.50;;;0.30;;
55210;SDS011;41082;52.822;6.666;2023-06-26T17:02:09;3.03;;;0.50;;
55210;SDS011;41082;52.822;6.666;2023-06-26T17:04:35;4.55;;;0.50;;
55210;SDS011;41082;52.822;6.666;2023-06-26T17:07:01;2.67;;;0.70;;
55210;SDS011;41082;52.822;6.666;2023-06-26T17:09:26;1.08;;;0.22;;
55210;SDS011;41082;52.822;6.666;2023-06-26T17:11:52;3.40;;;0.43;;
55210;SDS011;41082;52.822;6.666;2023-06-26T17:14:18;1.55;;;0.22;;
55210;SDS011;41082;52.822;6.666;2023-06-26T17:16:44;1.52;;;0.30;;
55210;SDS011;41082;52.822;6.666;2023-06-26T17:19:09;3.58;;;0.20;;
55210;SDS011;41082;52.822;6.666;2023-06-26T17:21:35;4.18;;;0.30;;
55210;SDS011;41082;52.822;6.666;2023-06-26T17:24:02;1.42;;;0.30;;
55210;SDS011;41082;52.822;6.666;2023-06-26T17:26:28;4.38;;;0.38;;
55210;SDS011;41082;52.822;6.666;2023-06-26T17:28:55;2.42;;;0.30;;
55210;SDS011;41082;52.822;6.666;2023-06-26T17:31:21;2.63;;;0.40;;
55210;SDS011;41082;52.822;6.666;2023-06-26T17:33:46;2.75;;;0.32;;
55210;SDS011;41082;52.822;6.666;2023-06-26T17:36:12;4.22;;;0.38;;
55210;SDS011;41082;52.822;6.666;2023-06-26T17:38:37;1.45;;;0.55;;
55210;SDS011;41082;52.822;6.666;2023-06-26T17:41:04;2.70;;;0.32;;
55210;SDS011;41082;52.822;6.666;2023-06-26T17:43:30;4.25;;;0.30;;
55210;SDS011;41082;52.822;6.666;2023-06-26T17:45:56;3.25;;;0.20;;
55210;SDS011;41082;52.822;6.666;2023-06-26T17:48:21;2.83;;;0.63;;
55210;SDS011;41082;52.822;6.666;2023-06-26T17:50:48;3.03;;;0.30;;
55210;SDS011;41082;52.822;6.666;2023-06-26T17:53:14;3.10;;;0.25;;
55210;SDS011;41082;52.822;6.666;2023-06-26T17:55:40;2.38;;;0.38;;
55210;SDS011;41082;52.822;6.666;2023-06-26T17:58:06;5.13;;;0.60;;
55210;SDS011;41082;52.822;6.666;2023-06-26T18:00:32;3.63;;;0.30;;
55210;SDS011;41082;52.822;6.666;2023-06-26T18:02:57;1.85;;;0.30;;
55210;SDS011;41082;52.822;6.666;2023-06-26T18:05:23;4.30;;;0.43;;
55210;SDS011;41082;52.822;6.666;2023-06-26T18:07:49;3.78;;;0.55;;
55210;SDS011;41082;52.822;6.666;2023-06-26T18:10:15;3.67;;;0.50;;
55210;SDS011;41082;52.822;6.666;2023-06-26T18:12:40;4.60;;;0.30;;
55210;SDS011;41082;52.822;6.666;2023-06-26T18:15:06;3.17;;;0.40;;
55210;SDS011;41082;52.822;6.666;2023-06-26T18:17:32;7.20;;;1.08;;
55210;SDS011;41082;52.822;6.666;2023-06-26T18:19:58;5.32;;;0.60;;
55210;SDS011;41082;52.822;6.666;2023-06-26T18:22:23;2.40;;;0.47;;
55210;SDS011;41082;52.822;6.666;2023-06-26T18:24:49;3.88;;;0.38;;
55210;SDS011;41082;52.822;6.666;2023-06-26T18:27:14;1.75;;;0.20;;
55210;SDS011;41082;52.822;6.666;2023-06-26T18:29:40;3.90;;;0.68;;
55210;SDS011;41082;52.822;6.666;2023-06-26T18:32:06;3.30;;;0.45;;
55210;SDS011;41082;52.822;6.666;2023-06-26T18:34:32;4.78;;;0.40;;
55210;SDS011;41082;52.822;6.666;2023-06-26T18:36:57;2.80;;;0.30;;
55210;SDS011;41082;52.822;6.666;2023-06-26T18:39:24;4.53;;;0.30;;
55210;SDS011;41082;52.822;6.666;2023-06-26T18:41:50;2.40;;;0.30;;
55210;SDS011;41082;52.822;6.666;2023-06-26T18:44:16;2.75;;;0.55;;
55210;SDS011;41082;52.822;6.666;2023-06-26T18:46:42;3.58;;;0.30;;
55210;SDS011;41082;52.822;6.666;2023-06-26T18:49:07;2.30;;;0.40;;
55210;SDS011;41082;52.822;6.666;2023-06-26T18:51:33;2.83;;;0.30;;
55210;SDS011;41082;52.822;6.666;2023-06-26T18:54:00;3.08;;;0.20;;
55210;SDS011;41082;52.822;6.666;2023-06-26T18:56:27;3.65;;;0.50;;
55210;SDS011;41082;52.822;6.666;2023-06-26T18:58:53;4.40;;;0.30;;
55210;SDS011;41082;52.822;6.666;2023-06-26T19:01:18;2.92;;;0.20;;
55210;SDS011;41082;52.822;6.666;2023-06-26T19:03:44;3.80;;;0.40;;
55210;SDS011;41082;52.822;6.666;2023-06-26T19:06:09;4.03;;;0.38;;
55210;SDS011;41082;52.822;6.666;2023-06-26T19:08:35;2.88;;;0.38;;
55210;SDS011;41082;52.822;6.666;2023-06-26T19:11:01;2.97;;;0.35;;
55210;SDS011;41082;52.822;6.666;2023-06-26T19:13:26;5.07;;;0.50;;